sensor_id;sensor_type;location;lat;lon;timestamp;P1;durP1;ratioP1;P2;durP2;ratioP2
63714;SDS011;49858;48.956;9.076;2023-09-08T00:00:20;9.55;;;6.70;;
63714;SDS011;49858;48.956;9.076;2023-09-08T00:02:50;11.25;;;7.05;;
63714;SDS011;49858;48.956;9.076;2023-09-08T00:05:18;9.63;;;6.03;;
63714;SDS011;49858;48.956;9.076;2023-09-08T00:07:48;10.48;;;6.28;;
63714;SDS011;49858;48.956;9.076;2023-09-08T00:10:16;9.63;;;6.18;;
63714;SDS011;49858;48.956;9.076;2023-09-08T00:12:44;15.88;;;6.93;;
63714;SDS011;49858;48.956;9.076;2023-09-08T00:15:15;11.52;;;6.88;;
63714;SDS011;49858;48.956;9.076;2023-09-08T00:17:44;11.57;;;6.57;;
63714;SDS011;49858;48.956;9.076;2023-09-08T00:20:15;13.25;;;6.90;;
63714;SDS011;49858;48.956;9.076;2023-09-08T00:22:44;17.08;;;7.28;;
63714;SDS011;49858;48.956;9.076;2023-09-08T00:25:12;21.42;;;7.63;;
63714;SDS011;49858;48.956;9.076;2023-09-08T00:27:42;12.00;;;6.25;;
63714;SDS011;49858;48.956;9.076;2023-09-08T00:30:11;11.65;;;6.68;;
63714;SDS011;49858;48.956;9.076;2023-09-08T00:32:43;12.93;;;7.38;;
63714;SDS011;49858;48.956;9.076;2023-09-08T00:35:12;12.32;;;6.78;;
63714;SDS011;49858;48.956;9.076;2023-09-08T00:37:42;10.55;;;6.88;;
63714;SDS011;49858;48.956;9.076;2023-09-08T00:40:10;10.82;;;6.70;;
63714;SDS011;49858;48.956;9.076;2023-09-08T00:42:59;11.32;;;6.72;;
63714;SDS011;49858;48.956;9.076;2023-09-08T00:45:30;10.90;;;6.90;;
63714;SDS011;49858;48.956;9.076;2023-09-08T00:48:01;11.48;;;6.38;;
63714;SDS011;49858;48.956;9.076;2023-09-08T00:50:33;10.27;;;6.50;;
63714;SDS011;49858;48.956;9.076;2023-09-08T00:53:04;13.57;;;7.03;;
63714;SDS011;49858;48.956;9.076;2023-09-08T00:55:34;10.98;;;7.10;;
63714;SDS011;49858;48.956;9.076;2023-09-08T00:58:03;9.68;;;6.50;;
63714;SDS011;49858;48.956;9.076;2023-09-08T01:00:32;12.00;;;6.70;;
63714;SDS011;49858;48.956;9.076;2023-09-08T01:03:00;10.50;;;6.90;;
63714;SDS011;49858;48.956;9.076;2023-09-08T01:05:30;11.43;;;7.10;;
63714;SDS011;49858;48.956;9.076;2023-09-08T01:08:00;12.27;;;7.07;;
63714;SDS011;49858;48.956;9.076;2023-09-08T01:10:31;9.90;;;6.97;;
63714;SDS011;49858;48.956;9.076;2023-09-08T01:13:03;14.43;;;7.57;;
63714;SDS011;49858;48.956;9.076;2023-09-08T01:15:33;11.30;;;6.25;;
63714;SDS011;49858;48.956;9.076;2023-09-08T01:18:01;9.85;;;6.47;;
63714;SDS011;49858;48.956;9.076;2023-09-08T01:20:35;10.95;;;6.93;;
63714;SDS011;49858;48.956;9.076;2023-09-08T01:23:21;9.38;;;6.30;;
63714;SDS011;49858;48.956;9.076;2023-09-08T01:25:54;12.38;;;7.57;;
63714;SDS011;49858;48.956;9.076;2023-09-08T01:28:30;12.45;;;6.95;;
63714;SDS011;49858;48.956;9.076;2023-09-08T01:31:02;11.00;;;6.88;;
63714;SDS011;49858;48.956;9.076;2023-09-08T01:33:39;9.88;;;7.05;;
63714;SDS011;49858;48.956;9.076;2023-09-08T01:36:40;12.63;;;7.28;;
63714;SDS011;49858;48.956;9.076;2023-09-08T01:39:22;9.85;;;6.65;;
63714;SDS011;49858;48.956;9.076;2023-09-08T01:41:57;11.38;;;7.40;;
63714;SDS011;49858;48.956;9.076;2023-09-08T01:44:54;11.30;;;7.03;;
63714;SDS011;49858;48.956;9.076;2023-09-08T01:47:29;12.00;;;7.53;;
63714;SDS011;49858;48.956;9.076;2023-09-08T01:49:58;13.68;;;6.90;;
63714;SDS011;49858;48.956;9.076;2023-09-08T01:52:31;9.93;;;7.38;;
63714;SDS011;49858;48.956;9.076;2023-09-08T01:55:00;11.90;;;7.43;;
63714;SDS011;49858;48.956;9.076;2023-09-08T01:57:30;10.40;;;6.75;;
63714;SDS011;49858;48.956;9.076;2023-09-08T01:59:58;12.38;;;7.57;;
63714;SDS011;49858;48.956;9.076;2023-09-08T02:02:26;12.82;;;7.68;;
63714;SDS011;49858;48.956;9.076;2023-09-08T02:04:54;13.25;;;7.93;;
63714;SDS011;49858;48.956;9.076;2023-09-08T02:07:29;11.77;;;7.10;;
63714;SDS011;49858;48.956;9.076;2023-09-08T02:09:58;13.73;;;7.18;;
63714;SDS011;49858;48.956;9.076;2023-09-08T02:12:26;16.80;;;8.90;;
63714;SDS011;49858;48.956;9.076;2023-09-08T02:14:56;13.98;;;7.47;;
63714;SDS011;49858;48.956;9.076;2023-09-08T02:17:24;12.90;;;7.65;;
63714;SDS011;49858;48.956;9.076;2023-09-08T02:19:52;11.60;;;7.25;;
63714;SDS011;49858;48.956;9.076;2023-09-08T02:22:29;14.27;;;7.60;;
63714;SDS011;49858;48.956;9.076;2023-09-08T02:25:15;11.95;;;7.47;;
63714;SDS011;49858;48.956;9.076;2023-09-08T02:28:26;12.45;;;7.47;;
63714;SDS011;49858;48.956;9.076;2023-09-08T02:34:09;12.10;;;6.68;;
63714;SDS011;49858;48.956;9.076;2023-09-08T02:36:49;9.90;;;6.30;;
63714;SDS011;49858;48.956;9.076;2023-09-08T02:39:30;12.93;;;7.13;;
63714;SDS011;49858;48.956;9.076;2023-09-08T02:42:45;10.55;;;7.13;;
63714;SDS011;49858;48.956;9.076;2023-09-08T02:45:51;11.70;;;7.57;;
63714;SDS011;49858;48.956;9.076;2023-09-08T02:48:37;14.05;;;8.35;;
63714;SDS011;49858;48.956;9.076;2023-09-08T02:51:16;13.18;;;7.90;;
63714;SDS011;49858;48.956;9.076;2023-09-08T02:53:47;13.35;;;7.65;;
63714;SDS011;49858;48.956;9.076;2023-09-08T02:56:15;12.75;;;7.35;;
63714;SDS011;49858;48.956;9.076;2023-09-08T02:58:47;11.30;;;7.20;;
63714;SDS011;49858;48.956;9.076;2023-09-08T03:01:20;13.48;;;8.02;;
63714;SDS011;49858;48.956;9.076;2023-09-08T03:03:52;13.25;;;7.47;;
63714;SDS011;49858;48.956;9.076;2023-09-08T03:06:27;13.80;;;7.93;;
63714;SDS011;49858;48.956;9.076;2023-09-08T03:09:03;13.93;;;7.53;;
63714;SDS011;49858;48.956;9.076;2023-09-08T03:11:35;15.65;;;7.63;;
63714;SDS011;49858;48.956;9.076;2023-09-08T03:14:06;14.50;;;7.22;;
63714;SDS011;49858;48.956;9.076;2023-09-08T03:16:34;12.25;;;7.05;;
63714;SDS011;49858;48.956;9.076;2023-09-08T03:19:05;12.00;;;7.75;;
63714;SDS011;49858;48.956;9.076;2023-09-08T03:21:36;15.43;;;8.45;;
63714;SDS011;49858;48.956;9.076;2023-09-08T03:24:11;12.40;;;7.70;;
63714;SDS011;49858;48.956;9.076;2023-09-08T03:27:30;14.55;;;7.63;;
63714;SDS011;49858;48.956;9.076;2023-09-08T03:31:08;15.20;;;7.90;;
63714;SDS011;49858;48.956;9.076;2023-09-08T03:37:36;12.07;;;7.35;;
63714;SDS011;49858;48.956;9.076;2023-09-08T03:40:30;13.05;;;7.40;;
63714;SDS011;49858;48.956;9.076;2023-09-08T03:43:13;15.43;;;8.35;;
63714;SDS011;49858;48.956;9.076;2023-09-08T03:46:01;15.35;;;8.32;;
63714;SDS011;49858;48.956;9.076;2023-09-08T03:52:58;10.98;;;7.13;;
63714;SDS011;49858;48.956;9.076;2023-09-08T03:55:49;15.70;;;7.65;;
63714;SDS011;49858;48.956;9.076;2023-09-08T03:58:20;11.57;;;7.22;;
63714;SDS011;49858;48.956;9.076;2023-09-08T04:00:53;11.70;;;7.07;;
63714;SDS011;49858;48.956;9.076;2023-09-08T04:03:38;11.45;;;6.80;;
63714;SDS011;49858;48.956;9.076;2023-09-08T04:06:21;10.80;;;7.05;;
63714;SDS011;49858;48.956;9.076;2023-09-08T04:09:30;11.93;;;6.60;;
63714;SDS011;49858;48.956;9.076;2023-09-08T04:12:04;12.82;;;7.75;;
63714;SDS011;49858;48.956;9.076;2023-09-08T04:15:00;12.77;;;7.40;;
63714;SDS011;49858;48.956;9.076;2023-09-08T04:17:42;16.63;;;8.18;;
63714;SDS011;49858;48.956;9.076;2023-09-08T04:20:10;14.02;;;7.78;;
63714;SDS011;49858;48.956;9.076;2023-09-08T04:22:41;13.98;;;7.70;;
63714;SDS011;49858;48.956;9.076;2023-09-08T04:25:10;13.63;;;8.25;;
63714;SDS011;49858;48.956;9.076;2023-09-08T04:27:39;17.08;;;9.80;;
63714;SDS011;49858;48.956;9.076;2023-09-08T04:30:08;15.43;;;8.80;;
63714;SDS011;49858;48.956;9.076;2023-09-08T04:32:37;14.15;;;8.45;;
63714;SDS011;49858;48.956;9.076;2023-09-08T04:35:09;16.20;;;8.77;;
63714;SDS011;49858;48.956;9.076;2023-09-08T04:37:38;13.85;;;7.82;;
63714;SDS011;49858;48.956;9.076;2023-09-08T04:40:07;12.32;;;7.78;;
63714;SDS011;49858;48.956;9.076;2023-09-08T04:42:40;13.13;;;7.60;;
63714;SDS011;49858;48.956;9.076;2023-09-08T04:45:14;14.45;;;8.32;;
63714;SDS011;49858;48.956;9.076;2023-09-08T04:47:46;14.32;;;8.35;;
63714;SDS011;49858;48.956;9.076;2023-09-08T04:50:18;15.20;;;7.65;;
63714;SDS011;49858;48.956;9.076;2023-09-08T04:52:49;13.43;;;7.97;;
63714;SDS011;49858;48.956;9.076;2023-09-08T04:55:18;15.43;;;8.45;;
63714;SDS011;49858;48.956;9.076;2023-09-08T04:58:02;12.02;;;7.63;;
63714;SDS011;49858;48.956;9.076;2023-09-08T05:00:34;15.40;;;7.82;;
63714;SDS011;49858;48.956;9.076;2023-09-08T05:03:08;13.10;;;7.90;;
63714;SDS011;49858;48.956;9.076;2023-09-08T05:05:51;12.98;;;7.45;;
63714;SDS011;49858;48.956;9.076;2023-09-08T05:08:27;13.27;;;8.35;;
63714;SDS011;49858;48.956;9.076;2023-09-08T05:11:06;15.40;;;8.10;;
63714;SDS011;49858;48.956;9.076;2023-09-08T05:13:48;12.60;;;7.60;;
63714;SDS011;49858;48.956;9.076;2023-09-08T05:16:24;18.08;;;8.32;;
63714;SDS011;49858;48.956;9.076;2023-09-08T05:19:05;12.75;;;8.20;;
63714;SDS011;49858;48.956;9.076;2023-09-08T05:21:35;15.15;;;8.27;;
63714;SDS011;49858;48.956;9.076;2023-09-08T05:24:10;15.68;;;7.93;;
63714;SDS011;49858;48.956;9.076;2023-09-08T05:26:41;13.23;;;7.55;;
63714;SDS011;49858;48.956;9.076;2023-09-08T05:29:11;15.68;;;8.00;;
63714;SDS011;49858;48.956;9.076;2023-09-08T05:31:39;15.27;;;7.97;;
63714;SDS011;49858;48.956;9.076;2023-09-08T05:34:12;12.68;;;8.27;;
63714;SDS011;49858;48.956;9.076;2023-09-08T05:38:02;12.55;;;8.07;;
63714;SDS011;49858;48.956;9.076;2023-09-08T05:40:31;11.27;;;7.57;;
63714;SDS011;49858;48.956;9.076;2023-09-08T05:42:59;15.32;;;7.95;;
63714;SDS011;49858;48.956;9.076;2023-09-08T05:45:32;13.73;;;7.70;;
63714;SDS011;49858;48.956;9.076;2023-09-08T05:48:01;14.15;;;8.00;;
63714;SDS011;49858;48.956;9.076;2023-09-08T05:50:30;14.02;;;7.97;;
63714;SDS011;49858;48.956;9.076;2023-09-08T05:52:58;16.23;;;8.10;;
63714;SDS011;49858;48.956;9.076;2023-09-08T05:55:30;16.15;;;8.98;;
63714;SDS011;49858;48.956;9.076;2023-09-08T05:57:58;14.80;;;8.48;;
63714;SDS011;49858;48.956;9.076;2023-09-08T06:00:27;14.50;;;8.77;;
63714;SDS011;49858;48.956;9.076;2023-09-08T06:02:56;14.68;;;8.50;;
63714;SDS011;49858;48.956;9.076;2023-09-08T06:05:25;16.08;;;8.73;;
63714;SDS011;49858;48.956;9.076;2023-09-08T06:07:53;13.65;;;8.38;;
63714;SDS011;49858;48.956;9.076;2023-09-08T06:10:35;13.10;;;8.10;;
63714;SDS011;49858;48.956;9.076;2023-09-08T06:13:03;20.52;;;7.90;;
63714;SDS011;49858;48.956;9.076;2023-09-08T06:15:31;13.45;;;8.55;;
63714;SDS011;49858;48.956;9.076;2023-09-08T06:18:00;11.88;;;7.72;;
63714;SDS011;49858;48.956;9.076;2023-09-08T06:20:29;14.38;;;8.50;;
63714;SDS011;49858;48.956;9.076;2023-09-08T06:23:01;15.25;;;8.18;;
63714;SDS011;49858;48.956;9.076;2023-09-08T06:25:29;12.88;;;7.95;;
63714;SDS011;49858;48.956;9.076;2023-09-08T06:27:57;12.38;;;8.13;;
63714;SDS011;49858;48.956;9.076;2023-09-08T06:30:26;10.55;;;7.35;;
63714;SDS011;49858;48.956;9.076;2023-09-08T06:32:54;12.82;;;7.63;;
63714;SDS011;49858;48.956;9.076;2023-09-08T06:35:25;13.45;;;7.82;;
63714;SDS011;49858;48.956;9.076;2023-09-08T06:37:58;12.05;;;7.45;;
63714;SDS011;49858;48.956;9.076;2023-09-08T06:40:26;10.65;;;7.70;;
63714;SDS011;49858;48.956;9.076;2023-09-08T06:42:56;15.10;;;8.15;;
63714;SDS011;49858;48.956;9.076;2023-09-08T06:45:40;13.48;;;7.60;;
63714;SDS011;49858;48.956;9.076;2023-09-08T06:48:15;10.95;;;7.75;;
63714;SDS011;49858;48.956;9.076;2023-09-08T06:50:44;11.35;;;7.13;;
63714;SDS011;49858;48.956;9.076;2023-09-08T06:53:12;13.52;;;8.45;;
63714;SDS011;49858;48.956;9.076;2023-09-08T06:55:41;12.48;;;7.90;;
63714;SDS011;49858;48.956;9.076;2023-09-08T06:58:11;15.65;;;7.60;;
63714;SDS011;49858;48.956;9.076;2023-09-08T07:00:41;18.02;;;7.88;;
63714;SDS011;49858;48.956;9.076;2023-09-08T07:03:10;11.45;;;6.90;;
63714;SDS011;49858;48.956;9.076;2023-09-08T07:05:39;13.57;;;7.55;;
63714;SDS011;49858;48.956;9.076;2023-09-08T07:08:12;11.38;;;6.65;;
63714;SDS011;49858;48.956;9.076;2023-09-08T07:10:40;12.77;;;6.88;;
63714;SDS011;49858;48.956;9.076;2023-09-08T07:13:08;10.40;;;7.00;;
63714;SDS011;49858;48.956;9.076;2023-09-08T07:15:39;11.05;;;7.40;;
63714;SDS011;49858;48.956;9.076;2023-09-08T07:18:10;11.18;;;7.50;;
63714;SDS011;49858;48.956;9.076;2023-09-08T07:20:38;10.50;;;6.80;;
63714;SDS011;49858;48.956;9.076;2023-09-08T07:23:06;11.10;;;6.55;;
63714;SDS011;49858;48.956;9.076;2023-09-08T07:25:36;12.02;;;7.38;;
63714;SDS011;49858;48.956;9.076;2023-09-08T07:28:04;10.25;;;6.78;;
63714;SDS011;49858;48.956;9.076;2023-09-08T07:30:32;9.02;;;6.63;;
63714;SDS011;49858;48.956;9.076;2023-09-08T07:33:00;10.25;;;6.40;;
63714;SDS011;49858;48.956;9.076;2023-09-08T07:35:31;9.35;;;5.38;;
63714;SDS011;49858;48.956;9.076;2023-09-08T07:37:59;8.85;;;6.38;;
63714;SDS011;49858;48.956;9.076;2023-09-08T07:40:27;10.02;;;6.53;;
63714;SDS011;49858;48.956;9.076;2023-09-08T07:42:56;9.52;;;5.72;;
63714;SDS011;49858;48.956;9.076;2023-09-08T07:45:24;11.15;;;6.05;;
63714;SDS011;49858;48.956;9.076;2023-09-08T07:47:52;8.38;;;5.68;;
63714;SDS011;49858;48.956;9.076;2023-09-08T07:50:20;11.27;;;5.75;;
63714;SDS011;49858;48.956;9.076;2023-09-08T07:52:50;7.30;;;5.40;;
63714;SDS011;49858;48.956;9.076;2023-09-08T07:55:19;9.13;;;5.53;;
63714;SDS011;49858;48.956;9.076;2023-09-08T07:57:49;8.73;;;5.38;;
63714;SDS011;49858;48.956;9.076;2023-09-08T08:00:19;8.18;;;5.68;;
63714;SDS011;49858;48.956;9.076;2023-09-08T08:02:48;8.55;;;5.50;;
63714;SDS011;49858;48.956;9.076;2023-09-08T08:05:17;7.57;;;5.45;;
63714;SDS011;49858;48.956;9.076;2023-09-08T08:07:45;9.98;;;5.45;;
63714;SDS011;49858;48.956;9.076;2023-09-08T08:10:13;8.25;;;6.03;;
63714;SDS011;49858;48.956;9.076;2023-09-08T08:12:41;11.60;;;6.05;;
63714;SDS011;49858;48.956;9.076;2023-09-08T08:15:10;8.27;;;5.28;;
63714;SDS011;49858;48.956;9.076;2023-09-08T08:17:40;7.53;;;5.25;;
63714;SDS011;49858;48.956;9.076;2023-09-08T08:20:10;9.27;;;5.38;;
63714;SDS011;49858;48.956;9.076;2023-09-08T08:22:44;9.18;;;5.55;;
63714;SDS011;49858;48.956;9.076;2023-09-08T08:25:13;9.43;;;5.40;;
63714;SDS011;49858;48.956;9.076;2023-09-08T08:27:42;6.90;;;5.07;;
63714;SDS011;49858;48.956;9.076;2023-09-08T08:30:11;9.07;;;5.97;;
63714;SDS011;49858;48.956;9.076;2023-09-08T08:32:40;7.95;;;5.60;;
63714;SDS011;49858;48.956;9.076;2023-09-08T08:35:11;6.75;;;4.97;;
63714;SDS011;49858;48.956;9.076;2023-09-08T08:37:39;7.68;;;4.97;;
63714;SDS011;49858;48.956;9.076;2023-09-08T08:40:09;8.88;;;5.70;;
63714;SDS011;49858;48.956;9.076;2023-09-08T08:42:41;9.60;;;5.03;;
63714;SDS011;49858;48.956;9.076;2023-09-08T08:45:10;8.05;;;4.95;;
63714;SDS011;49858;48.956;9.076;2023-09-08T08:47:41;6.30;;;4.60;;
63714;SDS011;49858;48.956;9.076;2023-09-08T08:50:11;7.28;;;4.50;;
63714;SDS011;49858;48.956;9.076;2023-09-08T08:52:40;6.75;;;4.75;;
63714;SDS011;49858;48.956;9.076;2023-09-08T08:55:09;9.57;;;5.47;;
63714;SDS011;49858;48.956;9.076;2023-09-08T08:57:41;7.05;;;4.72;;
63714;SDS011;49858;48.956;9.076;2023-09-08T09:00:13;7.28;;;5.13;;
63714;SDS011;49858;48.956;9.076;2023-09-08T09:02:46;11.43;;;5.35;;
63714;SDS011;49858;48.956;9.076;2023-09-08T09:05:37;5.47;;;4.75;;
63714;SDS011;49858;48.956;9.076;2023-09-08T09:08:05;7.63;;;5.20;;
63714;SDS011;49858;48.956;9.076;2023-09-08T09:10:36;7.55;;;5.00;;
63714;SDS011;49858;48.956;9.076;2023-09-08T09:13:05;8.85;;;5.00;;
63714;SDS011;49858;48.956;9.076;2023-09-08T09:15:36;5.57;;;4.25;;
63714;SDS011;49858;48.956;9.076;2023-09-08T09:18:06;8.65;;;4.93;;
63714;SDS011;49858;48.956;9.076;2023-09-08T09:20:35;6.00;;;4.65;;
63714;SDS011;49858;48.956;9.076;2023-09-08T09:23:04;7.18;;;5.18;;
63714;SDS011;49858;48.956;9.076;2023-09-08T09:25:31;9.02;;;5.50;;
63714;SDS011;49858;48.956;9.076;2023-09-08T09:28:01;8.52;;;5.07;;
63714;SDS011;49858;48.956;9.076;2023-09-08T09:30:48;7.40;;;4.78;;
63714;SDS011;49858;48.956;9.076;2023-09-08T09:33:19;8.75;;;4.40;;
63714;SDS011;49858;48.956;9.076;2023-09-08T09:35:48;5.38;;;4.18;;
63714;SDS011;49858;48.956;9.076;2023-09-08T09:38:18;5.05;;;4.07;;
63714;SDS011;49858;48.956;9.076;2023-09-08T09:40:47;8.55;;;4.75;;
63714;SDS011;49858;48.956;9.076;2023-09-08T09:43:16;7.45;;;5.30;;
63714;SDS011;49858;48.956;9.076;2023-09-08T09:45:44;7.05;;;4.82;;
63714;SDS011;49858;48.956;9.076;2023-09-08T09:48:12;6.93;;;4.90;;
63714;SDS011;49858;48.956;9.076;2023-09-08T09:50:42;8.93;;;4.30;;
63714;SDS011;49858;48.956;9.076;2023-09-08T09:53:10;6.05;;;4.60;;
63714;SDS011;49858;48.956;9.076;2023-09-08T09:55:39;7.60;;;4.65;;
63714;SDS011;49858;48.956;9.076;2023-09-08T09:58:09;6.03;;;4.20;;
63714;SDS011;49858;48.956;9.076;2023-09-08T10:00:38;7.65;;;4.72;;
63714;SDS011;49858;48.956;9.076;2023-09-08T10:03:08;5.82;;;4.60;;
63714;SDS011;49858;48.956;9.076;2023-09-08T10:05:37;6.88;;;4.32;;
63714;SDS011;49858;48.956;9.076;2023-09-08T10:08:07;5.13;;;4.13;;
63714;SDS011;49858;48.956;9.076;2023-09-08T10:10:35;6.80;;;4.40;;
63714;SDS011;49858;48.956;9.076;2023-09-08T10:13:07;6.35;;;4.53;;
63714;SDS011;49858;48.956;9.076;2023-09-08T10:15:37;5.82;;;4.75;;
63714;SDS011;49858;48.956;9.076;2023-09-08T10:18:07;5.95;;;4.20;;
63714;SDS011;49858;48.956;9.076;2023-09-08T10:20:37;5.22;;;3.95;;
63714;SDS011;49858;48.956;9.076;2023-09-08T10:23:11;5.72;;;4.22;;
63714;SDS011;49858;48.956;9.076;2023-09-08T10:25:43;5.93;;;4.40;;
63714;SDS011;49858;48.956;9.076;2023-09-08T10:28:19;4.68;;;3.75;;
63714;SDS011;49858;48.956;9.076;2023-09-08T10:30:48;5.97;;;4.20;;
63714;SDS011;49858;48.956;9.076;2023-09-08T10:33:18;7.10;;;4.00;;
63714;SDS011;49858;48.956;9.076;2023-09-08T10:35:46;6.57;;;4.28;;
63714;SDS011;49858;48.956;9.076;2023-09-08T10:38:22;5.15;;;4.13;;
63714;SDS011;49858;48.956;9.076;2023-09-08T10:40:51;5.50;;;4.60;;
63714;SDS011;49858;48.956;9.076;2023-09-08T10:43:19;5.80;;;4.57;;
63714;SDS011;49858;48.956;9.076;2023-09-08T10:45:47;5.43;;;4.28;;
63714;SDS011;49858;48.956;9.076;2023-09-08T10:48:15;5.10;;;4.18;;
63714;SDS011;49858;48.956;9.076;2023-09-08T10:50:43;5.38;;;4.40;;
63714;SDS011;49858;48.956;9.076;2023-09-08T10:53:14;6.93;;;4.50;;
63714;SDS011;49858;48.956;9.076;2023-09-08T10:55:45;5.43;;;4.30;;
63714;SDS011;49858;48.956;9.076;2023-09-08T10:58:28;7.88;;;3.80;;
63714;SDS011;49858;48.956;9.076;2023-09-08T11:01:12;6.07;;;4.22;;
63714;SDS011;49858;48.956;9.076;2023-09-08T11:03:49;5.95;;;4.10;;
63714;SDS011;49858;48.956;9.076;2023-09-08T11:06:18;5.07;;;4.10;;
63714;SDS011;49858;48.956;9.076;2023-09-08T11:08:51;6.50;;;4.13;;
63714;SDS011;49858;48.956;9.076;2023-09-08T11:11:24;4.35;;;3.95;;
63714;SDS011;49858;48.956;9.076;2023-09-08T11:13:52;6.30;;;4.50;;
63714;SDS011;49858;48.956;9.076;2023-09-08T11:16:20;5.35;;;4.68;;
63714;SDS011;49858;48.956;9.076;2023-09-08T11:18:55;4.63;;;4.10;;
63714;SDS011;49858;48.956;9.076;2023-09-08T11:21:23;7.65;;;5.10;;
63714;SDS011;49858;48.956;9.076;2023-09-08T11:23:51;5.90;;;4.38;;
63714;SDS011;49858;48.956;9.076;2023-09-08T11:26:24;5.97;;;5.13;;
63714;SDS011;49858;48.956;9.076;2023-09-08T11:28:52;6.50;;;4.22;;
63714;SDS011;49858;48.956;9.076;2023-09-08T11:31:21;9.48;;;4.72;;
63714;SDS011;49858;48.956;9.076;2023-09-08T11:33:49;6.65;;;4.60;;
63714;SDS011;49858;48.956;9.076;2023-09-08T11:36:17;6.25;;;4.90;;
63714;SDS011;49858;48.956;9.076;2023-09-08T11:38:45;4.82;;;4.20;;
63714;SDS011;49858;48.956;9.076;2023-09-08T11:41:13;5.10;;;4.50;;
63714;SDS011;49858;48.956;9.076;2023-09-08T11:43:43;5.10;;;4.43;;
63714;SDS011;49858;48.956;9.076;2023-09-08T11:46:11;6.40;;;4.38;;
63714;SDS011;49858;48.956;9.076;2023-09-08T11:48:41;6.57;;;4.63;;
63714;SDS011;49858;48.956;9.076;2023-09-08T11:51:11;5.53;;;4.50;;
63714;SDS011;49858;48.956;9.076;2023-09-08T11:53:39;5.25;;;4.47;;
63714;SDS011;49858;48.956;9.076;2023-09-08T11:56:10;6.57;;;4.60;;
63714;SDS011;49858;48.956;9.076;2023-09-08T11:58:38;5.70;;;4.70;;
63714;SDS011;49858;48.956;9.076;2023-09-08T12:01:08;5.80;;;5.00;;
63714;SDS011;49858;48.956;9.076;2023-09-08T12:03:45;6.75;;;3.88;;
63714;SDS011;49858;48.956;9.076;2023-09-08T12:08:47;7.25;;;4.80;;
63714;SDS011;49858;48.956;9.076;2023-09-08T12:11:15;10.65;;;4.53;;
63714;SDS011;49858;48.956;9.076;2023-09-08T12:13:43;6.40;;;4.30;;
63714;SDS011;49858;48.956;9.076;2023-09-08T12:16:19;6.68;;;4.70;;
63714;SDS011;49858;48.956;9.076;2023-09-08T12:18:51;6.07;;;4.80;;
63714;SDS011;49858;48.956;9.076;2023-09-08T12:21:21;5.40;;;4.38;;
63714;SDS011;49858;48.956;9.076;2023-09-08T12:23:49;6.63;;;4.55;;
63714;SDS011;49858;48.956;9.076;2023-09-08T12:26:18;5.50;;;4.47;;
63714;SDS011;49858;48.956;9.076;2023-09-08T12:28:46;6.07;;;4.22;;
63714;SDS011;49858;48.956;9.076;2023-09-08T12:31:21;5.03;;;4.53;;
63714;SDS011;49858;48.956;9.076;2023-09-08T12:33:50;6.20;;;4.70;;
63714;SDS011;49858;48.956;9.076;2023-09-08T12:36:18;5.70;;;4.28;;
63714;SDS011;49858;48.956;9.076;2023-09-08T12:38:47;5.20;;;4.05;;
63714;SDS011;49858;48.956;9.076;2023-09-08T12:41:16;7.88;;;4.20;;
63714;SDS011;49858;48.956;9.076;2023-09-08T12:43:45;7.50;;;4.50;;
63714;SDS011;49858;48.956;9.076;2023-09-08T12:46:13;5.53;;;4.30;;
63714;SDS011;49858;48.956;9.076;2023-09-08T12:48:46;7.28;;;4.38;;
63714;SDS011;49858;48.956;9.076;2023-09-08T12:51:13;5.53;;;4.25;;
63714;SDS011;49858;48.956;9.076;2023-09-08T12:53:41;5.72;;;4.20;;
63714;SDS011;49858;48.956;9.076;2023-09-08T12:56:09;5.20;;;4.25;;
63714;SDS011;49858;48.956;9.076;2023-09-08T12:58:37;6.32;;;4.60;;
63714;SDS011;49858;48.956;9.076;2023-09-08T13:01:05;5.47;;;4.70;;
63714;SDS011;49858;48.956;9.076;2023-09-08T13:03:33;7.38;;;4.68;;
63714;SDS011;49858;48.956;9.076;2023-09-08T13:06:03;5.38;;;4.38;;
63714;SDS011;49858;48.956;9.076;2023-09-08T13:08:36;4.72;;;4.20;;
63714;SDS011;49858;48.956;9.076;2023-09-08T13:11:04;4.75;;;3.80;;
63714;SDS011;49858;48.956;9.076;2023-09-08T13:13:32;9.45;;;4.10;;
63714;SDS011;49858;48.956;9.076;2023-09-08T13:16:00;4.80;;;4.30;;
63714;SDS011;49858;48.956;9.076;2023-09-08T13:18:31;5.18;;;4.10;;
63714;SDS011;49858;48.956;9.076;2023-09-08T13:21:04;8.95;;;3.95;;
63714;SDS011;49858;48.956;9.076;2023-09-08T13:23:32;4.78;;;4.05;;
63714;SDS011;49858;48.956;9.076;2023-09-08T13:25:59;6.68;;;4.47;;
63714;SDS011;49858;48.956;9.076;2023-09-08T13:28:27;6.55;;;4.15;;
63714;SDS011;49858;48.956;9.076;2023-09-08T13:30:55;5.93;;;4.07;;
63714;SDS011;49858;48.956;9.076;2023-09-08T13:33:23;9.73;;;4.65;;
63714;SDS011;49858;48.956;9.076;2023-09-08T13:35:51;5.25;;;4.30;;
63714;SDS011;49858;48.956;9.076;2023-09-08T13:38:21;6.93;;;4.10;;
63714;SDS011;49858;48.956;9.076;2023-09-08T13:40:49;6.30;;;4.40;;
63714;SDS011;49858;48.956;9.076;2023-09-08T13:43:17;5.85;;;4.00;;
63714;SDS011;49858;48.956;9.076;2023-09-08T13:45:44;6.10;;;4.07;;
63714;SDS011;49858;48.956;9.076;2023-09-08T13:48:12;4.95;;;4.22;;
63714;SDS011;49858;48.956;9.076;2023-09-08T13:50:42;5.53;;;4.82;;
63714;SDS011;49858;48.956;9.076;2023-09-08T13:53:15;7.68;;;4.45;;
63714;SDS011;49858;48.956;9.076;2023-09-08T13:55:47;5.00;;;4.43;;
63714;SDS011;49858;48.956;9.076;2023-09-08T13:58:17;6.38;;;4.35;;
63714;SDS011;49858;48.956;9.076;2023-09-08T14:00:46;4.75;;;4.22;;
63714;SDS011;49858;48.956;9.076;2023-09-08T14:03:16;5.68;;;4.40;;
63714;SDS011;49858;48.956;9.076;2023-09-08T14:05:48;4.95;;;4.20;;
63714;SDS011;49858;48.956;9.076;2023-09-08T14:08:20;7.55;;;4.43;;
63714;SDS011;49858;48.956;9.076;2023-09-08T14:10:53;4.65;;;3.80;;
63714;SDS011;49858;48.956;9.076;2023-09-08T14:13:24;5.47;;;3.83;;
63714;SDS011;49858;48.956;9.076;2023-09-08T14:15:52;4.82;;;3.92;;
63714;SDS011;49858;48.956;9.076;2023-09-08T14:18:20;4.78;;;3.67;;
63714;SDS011;49858;48.956;9.076;2023-09-08T14:20:48;8.02;;;4.43;;
63714;SDS011;49858;48.956;9.076;2023-09-08T14:23:16;5.22;;;4.22;;
63714;SDS011;49858;48.956;9.076;2023-09-08T14:25:44;4.85;;;4.28;;
63714;SDS011;49858;48.956;9.076;2023-09-08T14:28:13;5.43;;;4.47;;
63714;SDS011;49858;48.956;9.076;2023-09-08T14:30:41;5.28;;;4.25;;
63714;SDS011;49858;48.956;9.076;2023-09-08T14:33:11;5.80;;;4.43;;
63714;SDS011;49858;48.956;9.076;2023-09-08T14:52:25;8.65;;;4.72;;
63714;SDS011;49858;48.956;9.076;2023-09-08T14:54:53;7.60;;;4.05;;
63714;SDS011;49858;48.956;9.076;2023-09-08T14:57:21;7.63;;;4.25;;
63714;SDS011;49858;48.956;9.076;2023-09-08T14:59:49;5.28;;;4.25;;
63714;SDS011;49858;48.956;9.076;2023-09-08T15:02:20;5.13;;;3.88;;
63714;SDS011;49858;48.956;9.076;2023-09-08T15:04:49;5.03;;;4.25;;
63714;SDS011;49858;48.956;9.076;2023-09-08T15:07:16;5.70;;;4.20;;
63714;SDS011;49858;48.956;9.076;2023-09-08T15:09:46;6.70;;;4.40;;
63714;SDS011;49858;48.956;9.076;2023-09-08T15:12:13;7.15;;;4.85;;
63714;SDS011;49858;48.956;9.076;2023-09-08T15:14:44;6.80;;;4.20;;
63714;SDS011;49858;48.956;9.076;2023-09-08T15:17:11;7.53;;;4.03;;
63714;SDS011;49858;48.956;9.076;2023-09-08T15:19:40;8.70;;;4.28;;
63714;SDS011;49858;48.956;9.076;2023-09-08T15:22:07;6.82;;;4.50;;
63714;SDS011;49858;48.956;9.076;2023-09-08T15:24:35;6.05;;;4.15;;
63714;SDS011;49858;48.956;9.076;2023-09-08T15:27:05;6.75;;;4.45;;
63714;SDS011;49858;48.956;9.076;2023-09-08T15:29:33;6.22;;;4.35;;
63714;SDS011;49858;48.956;9.076;2023-09-08T15:32:01;4.88;;;4.10;;
63714;SDS011;49858;48.956;9.076;2023-09-08T15:34:29;5.70;;;3.90;;
63714;SDS011;49858;48.956;9.076;2023-09-08T15:36:57;6.90;;;4.72;;
63714;SDS011;49858;48.956;9.076;2023-09-08T15:39:26;5.22;;;4.30;;